Time;durP1;ratioP1;P1;durP2;ratioP2;P2;SDS_P1;SDS_P2;PMS_P1;PMS_P2;Temp;Humidity;BMP_temperature;BMP_pressure;BME280_temperature;BME280_humidity;BME280_pressure;Samples;Min_cycle;Max_cycle;Signal;HPM_P1;HPM_P2
2020/12/25 00:01:29;;;;;;;1.20;1.10;;;3.10;99.90;;;;;;4954889;28;20397;-79
2020/12/25 00:03:56;;;;;;;1.20;1.10;;;3.20;99.90;;;;;;4980653;28;20400;-80
2020/12/25 00:06:22;;;;;;;1.40;1.30;;;3.20;99.90;;;;;;4955452;28;20396;-80
2020/12/25 00:08:48;;;;;;;1.60;1.30;;;5.00;99.90;;;;;;4951300;28;20545;-78
2020/12/25 00:11:14;;;;;;;1.23;1.13;;;4.20;99.90;;;;;;4964713;28;20407;-78
2020/12/25 00:13:39;;;;;;;0.80;0.80;;;5.20;99.90;;;;;;4969366;28;20781;-78
2020/12/25 00:16:05;;;;;;;1.80;1.00;;;4.90;99.90;;;;;;4969359;28;20866;-78
2020/12/25 00:18:31;;;;;;;0.70;0.70;;;2.80;99.90;;;;;;4963838;28;20477;-78
2020/12/25 00:20:56;;;;;;;1.00;0.90;;;4.90;99.90;;;;;;4970212;28;20574;-79
2020/12/25 00:23:22;;;;;;;1.20;1.00;;;5.20;99.90;;;;;;4977336;28;20483;-79
2020/12/25 00:25:48;;;;;;;0.90;0.90;;;3.80;99.90;;;;;;4953360;28;20400;-79
2020/12/25 00:28:14;;;;;;;1.07;0.80;;;3.30;99.90;;;;;;4974000;28;20423;-79
2020/12/25 00:30:43;;;;;;;1.17;0.90;;;5.10;99.90;;;;;;4955529;28;20390;-79
2020/12/25 00:33:10;;;;;;;1.52;1.13;;;3.40;99.90;;;;;;4955266;28;20521;-80
2020/12/25 00:35:36;;;;;;;1.15;0.80;;;3.40;99.90;;;;;;4955036;28;20397;-80
2020/12/25 00:38:01;;;;;;;1.20;1.00;;;3.00;99.90;;;;;;4956044;29;20790;-80
2020/12/25 00:40:27;;;;;;;1.30;1.20;;;4.00;99.90;;;;;;4963228;28;20735;-81
2020/12/25 00:42:53;;;;;;;1.00;0.90;;;4.50;99.90;;;;;;4974217;28;20392;-80
2020/12/25 00:45:19;;;;;;;1.20;1.10;;;3.10;99.90;;;;;;4975005;28;20488;-80
2020/12/25 00:47:44;;;;;;;1.20;1.10;;;4.80;99.90;;;;;;4974385;28;20388;-79
2020/12/25 00:50:10;;;;;;;2.00;1.20;;;2.90;99.90;;;;;;4975607;28;20419;-80
2020/12/25 00:52:36;;;;;;;2.13;1.10;;;4.80;99.90;;;;;;4974610;28;20745;-80
2020/12/25 00:55:02;;;;;;;2.45;1.10;;;3.20;99.90;;;;;;4974785;28;20419;-79
2020/12/25 00:57:28;;;;;;;1.20;1.10;;;3.40;99.90;;;;;;4974487;28;20384;-79
2020/12/25 00:59:54;;;;;;;1.50;1.10;;;3.00;99.90;;;;;;4974135;28;20430;-80
2020/12/25 01:02:20;;;;;;;0.70;0.70;;;3.30;99.90;;;;;;4974858;28;20769;-81
2020/12/25 01:04:46;;;;;;;1.50;1.00;;;3.20;99.90;;;;;;4973680;28;20396;-81
2020/12/25 01:07:12;;;;;;;1.00;0.73;;;4.60;99.90;;;;;;4973375;28;20395;-80
2020/12/25 01:09:37;;;;;;;1.10;0.77;;;3.40;99.90;;;;;;4972286;28;20384;-80
2020/12/25 01:12:03;;;;;;;0.93;0.80;;;4.60;99.90;;;;;;4971306;28;20454;-80
2020/12/25 01:14:30;;;;;;;0.80;0.60;;;5.10;99.90;;;;;;4966438;28;20427;-80
2020/12/25 01:16:56;;;;;;;0.80;0.80;;;5.00;99.90;;;;;;4974109;28;20384;-80
2020/12/25 01:19:23;;;;;;;0.70;0.60;;;2.80;99.90;;;;;;4965995;28;20431;-80
2020/12/25 01:21:52;;;;;;;0.77;0.70;;;6.20;99.90;;;;;;4969774;28;20443;-81
2020/12/25 01:24:18;;;;;;;0.65;0.65;;;5.40;99.90;;;;;;4969261;28;20438;-81
2020/12/25 01:26:44;;;;;;;0.80;0.60;;;4.40;99.90;;;;;;4970468;28;20416;-79
2020/12/25 01:29:10;;;;;;;0.60;0.60;;;6.30;99.90;;;;;;4971786;28;20410;-79
2020/12/25 01:31:35;;;;;;;1.00;0.70;;;4.20;99.90;;;;;;4971493;28;20479;-79
2020/12/25 01:34:01;;;;;;;0.67;0.60;;;4.60;99.90;;;;;;4973605;28;20502;-80
2020/12/25 01:36:27;;;;;;;0.68;0.60;;;4.40;99.90;;;;;;4974232;28;20388;-81
2020/12/25 01:38:53;;;;;;;0.90;0.80;;;3.70;99.90;;;;;;4972034;28;20412;-80
2020/12/25 01:41:18;;;;;;;0.80;0.40;;;5.60;99.90;;;;;;4964318;28;20424;-80
2020/12/25 01:43:44;;;;;;;0.73;0.50;;;5.10;99.90;;;;;;4960782;28;20449;-79
2020/12/25 01:46:11;;;;;;;0.80;0.50;;;4.20;99.90;;;;;;4965828;28;20392;-79
2020/12/25 01:48:37;;;;;;;0.68;0.40;;;5.30;99.90;;;;;;4956826;28;20398;-79
2020/12/25 01:51:04;;;;;;;0.50;0.47;;;5.30;99.90;;;;;;4961634;28;20467;-78
2020/12/25 01:53:31;;;;;;;0.73;0.50;;;4.20;99.90;;;;;;4963079;28;20422;-78
2020/12/25 01:55:58;;;;;;;0.75;0.40;;;3.30;99.90;;;;;;4968958;28;20407;-78
2020/12/25 01:58:24;;;;;;;1.00;0.65;;;5.70;99.90;;;;;;4958205;28;20393;-78
2020/12/25 02:00:52;;;;;;;0.90;0.60;;;3.30;99.90;;;;;;4967637;28;20423;-77
2020/12/25 02:03:18;;;;;;;0.50;0.40;;;4.70;99.90;;;;;;4963800;28;20415;-78
2020/12/25 02:05:44;;;;;;;0.57;0.57;;;3.40;99.90;;;;;;4960463;28;20418;-77
2020/12/25 02:08:11;;;;;;;1.90;0.52;;;5.10;99.90;;;;;;4970691;28;20492;-77
2020/12/25 02:10:39;;;;;;;0.40;0.40;;;4.60;99.90;;;;;;4961788;28;20398;-77
2020/12/25 02:13:05;;;;;;;0.90;0.50;;;3.50;99.90;;;;;;4961714;28;20407;-77
2020/12/25 02:15:31;;;;;;;0.57;0.40;;;3.90;99.90;;;;;;4958169;28;20394;-75
2020/12/25 02:17:57;;;;;;;0.57;0.47;;;4.70;99.90;;;;;;4968363;28;20475;-76
2020/12/25 02:20:23;;;;;;;0.60;0.40;;;5.00;99.90;;;;;;4970626;28;20468;-76
2020/12/25 02:22:48;;;;;;;0.40;0.40;;;5.90;99.90;;;;;;4961816;28;20492;-76
2020/12/25 02:25:14;;;;;;;0.67;0.67;;;5.70;99.90;;;;;;4964641;28;20487;-76
2020/12/25 02:27:40;;;;;;;0.80;0.50;;;3.50;99.90;;;;;;4966685;28;20395;-76
2020/12/25 02:30:07;;;;;;;0.50;0.40;;;3.70;99.90;;;;;;4957285;28;20937;-75
2020/12/25 02:32:34;;;;;;;1.10;0.60;;;3.40;99.90;;;;;;4954161;28;20401;-75
2020/12/25 02:35:00;;;;;;;0.82;0.50;;;5.90;99.90;;;;;;4960324;28;20420;-75
2020/12/25 02:37:25;;;;;;;0.80;0.50;;;4.60;99.90;;;;;;4962993;28;20878;-75
2020/12/25 02:39:52;;;;;;;0.80;0.50;;;4.70;99.90;;;;;;4967018;28;20404;-75
2020/12/25 02:42:17;;;;;;;1.10;0.50;;;4.70;99.90;;;;;;4956912;28;20389;-75
2020/12/25 02:44:43;;;;;;;1.20;0.60;;;5.90;99.90;;;;;;4967490;28;20463;-75
2020/12/25 02:47:10;;;;;;;0.60;0.50;;;3.70;99.90;;;;;;4961941;28;20384;-75
2020/12/25 02:49:35;;;;;;;1.20;0.43;;;3.70;99.90;;;;;;4961022;28;20743;-75
2020/12/25 02:52:04;;;;;;;0.70;0.50;;;4.90;99.90;;;;;;4968367;28;20905;-75
2020/12/25 02:54:30;;;;;;;0.60;0.40;;;4.20;99.90;;;;;;4956913;28;20518;-75
2020/12/25 02:56:55;;;;;;;0.50;0.40;;;3.80;99.90;;;;;;4965821;28;20489;-75
2020/12/25 02:59:21;;;;;;;0.80;0.50;;;4.50;99.90;;;;;;4963587;28;20388;-75
2020/12/25 03:01:51;;;;;;;1.80;0.70;;;4.60;99.90;;;;;;4958975;28;20448;-76
2020/12/25 03:04:17;;;;;;;0.75;0.60;;;6.20;99.90;;;;;;4969707;28;20474;-76
2020/12/25 03:06:43;;;;;;;0.80;0.63;;;5.70;99.90;;;;;;4957767;28;20383;-74
2020/12/25 03:09:09;;;;;;;0.80;0.80;;;5.30;99.90;;;;;;4964475;28;20407;-75
2020/12/25 03:11:35;;;;;;;0.60;0.40;;;5.60;99.90;;;;;;4960631;28;20417;-75
2020/12/25 03:14:00;;;;;;;0.97;0.70;;;5.40;99.90;;;;;;4968170;28;20471;-75
2020/12/25 03:16:26;;;;;;;0.60;0.60;;;3.80;99.90;;;;;;4954212;28;20392;-74
2020/12/25 03:18:52;;;;;;;0.80;0.60;;;4.50;99.90;;;;;;4952721;28;20389;-76
2020/12/25 03:21:17;;;;;;;1.30;0.70;;;3.60;99.90;;;;;;4953321;28;20418;-73
2020/12/25 03:23:43;;;;;;;0.70;0.60;;;5.20;99.90;;;;;;4953325;28;20971;-74
2020/12/25 03:26:09;;;;;;;2.20;0.80;;;5.30;99.90;;;;;;4953197;28;20390;-73
2020/12/25 03:28:34;;;;;;;0.60;0.60;;;4.10;99.90;;;;;;4953264;28;20468;-73
2020/12/25 03:31:00;;;;;;;1.30;0.90;;;3.70;99.90;;;;;;4952522;28;20457;-75
2020/12/25 03:33:26;;;;;;;1.10;0.80;;;3.80;99.90;;;;;;4953290;28;20422;-73
2020/12/25 03:35:51;;;;;;;0.60;0.50;;;5.70;99.90;;;;;;4952652;28;20385;-73
2020/12/25 03:38:18;;;;;;;0.70;0.50;;;5.20;99.90;;;;;;4953543;28;20783;-73
2020/12/25 03:40:44;;;;;;;1.50;0.70;;;3.70;99.90;;;;;;4952703;28;20428;-74
2020/12/25 03:43:09;;;;;;;1.20;0.90;;;4.10;99.90;;;;;;4953070;28;20485;-73
2020/12/25 03:45:35;;;;;;;1.17;0.93;;;4.20;99.90;;;;;;4952929;28;20386;-74
2020/12/25 03:48:01;;;;;;;1.10;0.90;;;3.60;99.90;;;;;;4953631;28;20397;-74
2020/12/25 03:50:29;;;;;;;0.70;0.70;;;3.80;99.90;;;;;;4972358;28;20385;-74
2020/12/25 03:52:55;;;;;;;1.00;0.80;;;3.80;99.90;;;;;;4971287;28;20730;-74
2020/12/25 03:55:21;;;;;;;1.50;1.10;;;5.10;99.90;;;;;;4972143;28;20458;-75
2020/12/25 03:57:47;;;;;;;1.80;0.85;;;3.60;99.90;;;;;;4971726;28;20445;-75
2020/12/25 04:00:12;;;;;;;1.60;1.00;;;4.30;99.90;;;;;;4971990;28;20940;-76
2020/12/25 04:02:38;;;;;;;1.70;1.00;;;4.60;99.90;;;;;;4978199;28;20438;-76
2020/12/25 04:05:04;;;;;;;2.33;1.30;;;4.70;99.90;;;;;;4978149;28;20388;-77
2020/12/25 04:07:29;;;;;;;3.27;1.30;;;3.90;99.90;;;;;;4978714;28;20471;-77
2020/12/25 04:09:55;;;;;;;1.17;1.08;;;3.80;99.90;;;;;;4972464;28;20808;-78
2020/12/25 04:12:21;;;;;;;1.60;0.80;;;4.10;99.90;;;;;;4959358;28;20931;-78
2020/12/25 04:14:52;;;;;;;1.30;1.00;;;4.60;99.90;;;;;;4958374;28;20487;-78
2020/12/25 04:17:18;;;;;;;2.10;1.08;;;5.80;99.90;;;;;;4959300;28;20470;-77
2020/12/25 04:19:46;;;;;;;1.10;1.00;;;4.10;99.90;;;;;;4959564;28;20393;-76
2020/12/25 04:22:15;;;;;;;1.50;1.15;;;5.00;99.90;;;;;;4957732;29;20932;-76
2020/12/25 04:24:40;;;;;;;1.10;1.00;;;4.60;99.90;;;;;;4958859;28;20807;-76
2020/12/25 04:27:06;;;;;;;1.10;1.00;;;4.60;99.90;;;;;;4958520;28;20695;-76
2020/12/25 04:29:31;;;;;;;0.80;0.80;;;4.70;99.90;;;;;;4959323;28;20476;-76
2020/12/25 04:32:00;;;;;;;2.00;1.10;;;5.40;99.90;;;;;;4973275;28;20398;-76
2020/12/25 04:34:25;;;;;;;1.00;0.88;;;4.80;99.90;;;;;;4959185;28;20429;-76
2020/12/25 04:36:51;;;;;;;2.50;1.10;;;3.40;99.90;;;;;;4958724;28;20397;-76
2020/12/25 04:39:19;;;;;;;4.70;1.15;;;3.50;99.90;;;;;;4959107;28;21050;-76
2020/12/25 04:41:50;;;;;;;1.50;1.20;;;5.90;99.90;;;;;;4958954;28;20397;-76
2020/12/25 04:44:16;;;;;;;3.80;1.40;;;4.20;99.90;;;;;;4959281;28;20425;-76
2020/12/25 04:46:45;;;;;;;1.90;1.70;;;3.50;99.90;;;;;;4959057;28;20421;-76
2020/12/25 04:49:10;;;;;;;1.10;1.00;;;5.50;99.90;;;;;;4958390;28;20397;-76
2020/12/25 04:51:39;;;;;;;1.30;1.10;;;5.00;99.90;;;;;;4959022;28;20552;-76
2020/12/25 04:54:04;;;;;;;1.45;1.25;;;3.50;99.90;;;;;;4958389;28;20468;-78
2020/12/25 04:56:30;;;;;;;1.97;1.40;;;5.30;99.90;;;;;;4959019;28;20449;-78
2020/12/25 04:58:57;;;;;;;3.80;1.60;;;4.60;99.90;;;;;;4958331;28;20448;-78
2020/12/25 05:01:22;;;;;;;1.58;1.48;;;5.50;99.90;;;;;;4958940;28;20480;-77
2020/12/25 05:03:48;;;;;;;2.60;1.30;;;3.30;99.90;;;;;;4958953;28;20525;-77
2020/12/25 05:06:16;;;;;;;1.63;1.25;;;4.70;99.90;;;;;;4959094;28;20398;-78
2020/12/25 05:08:44;;;;;;;1.20;1.10;;;4.70;99.90;;;;;;4958880;28;20386;-78
2020/12/25 05:11:12;;;;;;;2.33;1.20;;;3.90;99.90;;;;;;4958547;28;20405;-78
2020/12/25 05:13:50;;;;;;;1.10;1.00;;;3.40;99.90;;;;;;4956392;28;20553;-78
2020/12/25 05:16:19;;;;;;;2.47;1.40;;;3.50;99.90;;;;;;4956281;28;20866;-78
2020/12/25 05:18:50;;;;;;;2.38;1.38;;;3.60;99.90;;;;;;4954688;29;20393;-76
2020/12/25 05:21:17;;;;;;;2.20;1.10;;;4.20;99.90;;;;;;4955727;28;20389;-77
2020/12/25 05:23:45;;;;;;;2.70;1.00;;;3.60;99.90;;;;;;4955910;28;20577;-76
2020/12/25 05:26:12;;;;;;;1.65;1.10;;;3.30;99.90;;;;;;4955311;28;20834;-77
2020/12/25 05:28:40;;;;;;;2.50;1.20;;;4.00;99.90;;;;;;4955398;28;20400;-77
2020/12/25 05:31:09;;;;;;;1.70;1.40;;;3.60;99.90;;;;;;4955263;28;20397;-78
2020/12/25 05:33:37;;;;;;;1.50;1.30;;;2.90;99.90;;;;;;4955658;28;20508;-77
2020/12/25 05:36:10;;;;;;;3.20;1.70;;;5.60;99.90;;;;;;4954787;28;20480;-78
2020/12/25 05:38:41;;;;;;;1.30;1.20;;;3.80;99.90;;;;;;4955067;28;20477;-78
2020/12/25 05:41:08;;;;;;;3.10;1.00;;;3.90;99.90;;;;;;4955005;29;20473;-78
2020/12/25 05:43:40;;;;;;;2.70;1.37;;;4.80;99.90;;;;;;4955425;28;20474;-78
2020/12/25 05:46:11;;;;;;;2.00;1.20;;;4.30;99.90;;;;;;4955061;28;20420;-78
2020/12/25 05:48:39;;;;;;;2.28;1.50;;;4.70;99.90;;;;;;4955360;28;20416;-77
2020/12/25 05:51:08;;;;;;;2.47;1.20;;;3.40;99.90;;;;;;4954855;28;20859;-78
2020/12/25 05:53:38;;;;;;;2.40;1.40;;;4.40;99.90;;;;;;4955366;28;20799;-78
2020/12/25 05:56:04;;;;;;;1.90;1.58;;;3.40;99.90;;;;;;4954891;28;20393;-78
2020/12/25 05:58:34;;;;;;;2.85;1.30;;;3.40;99.90;;;;;;4955082;28;20430;-78
2020/12/25 06:01:01;;;;;;;1.55;1.20;;;3.80;99.90;;;;;;4954679;28;20490;-78
2020/12/25 06:03:29;;;;;;;1.77;1.60;;;3.60;99.90;;;;;;4955136;28;20405;-78
2020/12/25 06:06:01;;;;;;;2.27;1.60;;;4.30;99.90;;;;;;4954654;28;20480;-79
2020/12/25 06:08:38;;;;;;;4.13;1.50;;;3.90;99.90;;;;;;4954726;28;20435;-76
2020/12/25 06:11:04;;;;;;;1.58;1.30;;;3.70;99.90;;;;;;4969120;28;20447;-77
2020/12/25 06:13:44;;;;;;;2.20;1.20;;;3.50;99.90;;;;;;4974015;28;20419;-76
2020/12/25 06:16:14;;;;;;;0.98;0.88;;;5.60;99.90;;;;;;4973639;28;20488;-76
2020/12/25 06:19:03;;;;;;;1.97;1.30;;;4.70;99.90;;;;;;4974315;28;20975;-76
2020/12/25 06:21:31;;;;;;;2.80;1.70;;;5.10;99.90;;;;;;4972908;28;20400;-76
2020/12/25 06:23:59;;;;;;;1.60;1.50;;;3.80;99.90;;;;;;4972817;28;20790;-76
2020/12/25 06:26:30;;;;;;;1.80;1.27;;;3.80;99.90;;;;;;4973681;28;20403;-76
2020/12/25 06:28:56;;;;;;;1.42;1.17;;;3.60;99.90;;;;;;4973210;28;20426;-76
2020/12/25 06:31:42;;;;;;;2.50;1.23;;;4.20;99.90;;;;;;4973706;28;20452;-76
2020/12/25 06:34:11;;;;;;;1.40;1.30;;;5.90;99.90;;;;;;4973120;28;20423;-76
2020/12/25 06:36:42;;;;;;;4.15;1.45;;;4.10;99.90;;;;;;4973687;28;20388;-76
2020/12/25 06:39:21;;;;;;;1.30;1.20;;;5.70;99.90;;;;;;4972777;28;20466;-77
2020/12/25 06:41:47;;;;;;;2.20;1.20;;;3.80;99.90;;;;;;4973836;28;20789;-77
2020/12/25 06:44:17;;;;;;;2.40;1.10;;;4.90;99.90;;;;;;4973047;28;20412;-77
2020/12/25 06:46:52;;;;;;;3.40;1.33;;;3.40;99.90;;;;;;4973555;28;20454;-75
2020/12/25 06:49:23;;;;;;;1.30;1.20;;;3.60;99.90;;;;;;4972698;28;20800;-78
2020/12/25 06:51:49;;;;;;;3.38;1.30;;;3.70;99.90;;;;;;4973198;28;20399;-77
2020/12/25 06:54:26;;;;;;;1.58;1.48;;;4.20;99.90;;;;;;4971539;28;20423;-77
2020/12/25 06:57:15;;;;;;;3.80;1.43;;;5.10;99.90;;;;;;4972206;28;20497;-77
2020/12/25 06:59:41;;;;;;;4.95;2.00;;;3.90;99.90;;;;;;4975265;28;20404;-77
2020/12/25 07:02:11;;;;;;;3.20;1.50;;;4.60;99.90;;;;;;4972658;28;20392;-76
2020/12/25 07:04:36;;;;;;;1.90;1.50;;;5.80;99.90;;;;;;4973231;28;20474;-76
2020/12/25 07:07:09;;;;;;;1.87;1.60;;;5.00;99.90;;;;;;4972707;28;20822;-77
2020/12/25 07:09:38;;;;;;;1.80;1.38;;;3.60;99.90;;;;;;4972965;28;20479;-76
2020/12/25 07:12:06;;;;;;;1.67;1.58;;;3.60;99.90;;;;;;4972516;28;20395;-76
2020/12/25 07:14:32;;;;;;;2.83;1.70;;;4.50;99.90;;;;;;4972894;28;20430;-76
2020/12/25 07:16:57;;;;;;;2.20;1.80;;;5.90;99.90;;;;;;4972593;28;20389;-78
2020/12/25 07:19:23;;;;;;;2.20;2.00;;;6.10;99.90;;;;;;4972908;28;20722;-76
2020/12/25 07:21:49;;;;;;;4.60;1.95;;;5.00;99.90;;;;;;4972913;28;20443;-74
2020/12/25 07:24:15;;;;;;;2.50;2.00;;;5.80;99.90;;;;;;4972226;28;20492;-75
2020/12/25 07:26:41;;;;;;;3.83;2.30;;;3.70;99.90;;;;;;4972570;28;20802;-75
2020/12/25 07:29:14;;;;;;;2.70;1.98;;;4.30;99.90;;;;;;4972240;28;20383;-76
2020/12/25 07:31:45;;;;;;;3.92;2.00;;;4.70;99.90;;;;;;4972675;28;20384;-75
2020/12/25 07:34:15;;;;;;;2.67;2.43;;;3.70;99.90;;;;;;4972242;28;20455;-75
2020/12/25 07:36:41;;;;;;;3.80;3.07;;;4.90;99.90;;;;;;4971682;28;20400;-77
2020/12/25 07:39:06;;;;;;;3.40;2.60;;;5.60;99.90;;;;;;4971966;28;20408;-77
2020/12/25 07:41:35;;;;;;;3.70;2.38;;;5.80;99.90;;;;;;4972544;28;20435;-77
2020/12/25 07:44:02;;;;;;;4.25;2.20;;;5.10;99.90;;;;;;4971864;28;20480;-76
2020/12/25 07:46:29;;;;;;;2.93;2.63;;;3.90;99.90;;;;;;4972521;28;20392;-76
2020/12/25 07:48:59;;;;;;;2.50;2.30;;;4.10;99.90;;;;;;4972516;28;20392;-76
2020/12/25 07:51:25;;;;;;;3.90;2.15;;;3.90;99.90;;;;;;4972375;28;20392;-76
2020/12/25 07:53:53;;;;;;;3.03;2.30;;;5.90;99.90;;;;;;4972377;28;20412;-77
2020/12/25 07:56:25;;;;;;;2.92;1.90;;;4.70;99.90;;;;;;4972103;28;21092;-76
2020/12/25 07:58:52;;;;;;;4.13;2.15;;;3.80;99.90;;;;;;4972367;28;20422;-76
2020/12/25 08:01:22;;;;;;;1.98;1.77;;;4.80;99.90;;;;;;4971841;28;20403;-75
2020/12/25 08:03:48;;;;;;;3.95;2.15;;;3.80;99.90;;;;;;4972333;28;20387;-75
2020/12/25 08:06:16;;;;;;;3.20;2.15;;;5.90;99.90;;;;;;4971442;28;20391;-75
2020/12/25 08:08:47;;;;;;;3.97;2.40;;;5.10;99.90;;;;;;4972351;28;20392;-76
2020/12/25 08:11:15;;;;;;;3.70;2.37;;;3.80;99.90;;;;;;4957858;28;20400;-75
2020/12/25 08:13:41;;;;;;;3.85;2.08;;;5.00;99.90;;;;;;4961293;28;20449;-77
2020/12/25 08:16:08;;;;;;;3.72;1.88;;;3.70;99.90;;;;;;4961169;28;20392;-76
2020/12/25 08:18:34;;;;;;;3.53;2.50;;;4.40;99.90;;;;;;4972342;28;20385;-76
2020/12/25 08:21:03;;;;;;;5.30;2.20;;;3.80;99.90;;;;;;4965610;28;20410;-77
2020/12/25 08:23:33;;;;;;;2.38;2.17;;;5.20;99.90;;;;;;4967323;28;20400;-75
2020/12/25 08:25:59;;;;;;;3.55;2.05;;;5.10;99.90;;;;;;4971620;28;20388;-76
2020/12/25 08:28:25;;;;;;;2.30;2.10;;;3.60;99.90;;;;;;4963213;28;20396;-76
2020/12/25 08:30:50;;;;;;;2.72;2.08;;;3.90;99.90;;;;;;4967541;28;20585;-75
2020/12/25 08:33:26;;;;;;;3.00;2.50;;;4.30;99.90;;;;;;4971066;28;20920;-76
2020/12/25 08:35:52;;;;;;;2.30;1.85;;;5.80;99.90;;;;;;4971662;28;20475;-76
2020/12/25 08:38:18;;;;;;;2.60;2.20;;;4.30;99.90;;;;;;4971359;28;20432;-75
2020/12/25 08:40:48;;;;;;;4.03;2.60;;;5.70;99.90;;;;;;4986482;28;20458;-75
2020/12/25 08:43:17;;;;;;;4.18;2.58;;;4.40;99.90;;;;;;4970832;28;20401;-77
2020/12/25 08:46:00;;;;;;;2.83;2.40;;;4.00;99.90;;;;;;4971236;28;20452;-77
2020/12/25 08:48:30;;;;;;;3.30;2.30;;;4.10;99.90;;;;;;4973736;28;20516;-75
2020/12/25 08:51:16;;;;;;;3.97;2.22;;;3.80;99.90;;;;;;4975495;28;20384;-76
2020/12/25 08:53:54;;;;;;;2.90;2.30;;;6.10;99.90;;;;;;4975638;28;20469;-75
2020/12/25 08:56:22;;;;;;;2.25;2.05;;;6.00;99.90;;;;;;4974916;28;20399;-75
2020/12/25 08:59:01;;;;;;;2.10;1.80;;;4.90;99.90;;;;;;4975411;28;20413;-77
2020/12/25 09:01:29;;;;;;;3.15;2.05;;;3.90;99.90;;;;;;4974252;28;20463;-76
2020/12/25 09:04:01;;;;;;;2.50;2.10;;;4.30;99.90;;;;;;4975280;28;20856;-77
2020/12/25 09:06:29;;;;;;;3.80;2.10;;;4.00;99.90;;;;;;4974891;28;20388;-77
2020/12/25 09:08:55;;;;;;;3.35;2.20;;;3.90;99.90;;;;;;4975102;28;20388;-76
2020/12/25 09:11:23;;;;;;;2.97;2.30;;;5.50;99.90;;;;;;4973953;28;20528;-77
2020/12/25 09:13:49;;;;;;;2.70;2.13;;;4.40;99.90;;;;;;4974541;28;20420;-76
2020/12/25 09:16:15;;;;;;;2.30;2.10;;;5.80;99.90;;;;;;4970925;28;20426;-77
2020/12/25 09:18:41;;;;;;;3.50;2.08;;;4.40;99.90;;;;;;4971793;28;21179;-77
2020/12/25 09:21:09;;;;;;;4.55;2.35;;;4.10;99.90;;;;;;4971001;28;20415;-76
2020/12/25 09:23:35;;;;;;;3.67;2.05;;;4.50;99.90;;;;;;4968085;28;20482;-76
2020/12/25 09:26:03;;;;;;;3.57;2.23;;;5.80;99.90;;;;;;4972734;28;20599;-78
2020/12/25 09:28:28;;;;;;;2.53;2.03;;;4.50;99.90;;;;;;4968967;28;20869;-77
2020/12/25 09:30:57;;;;;;;3.20;2.10;;;5.60;99.90;;;;;;4973038;28;20413;-77
2020/12/25 09:33:26;;;;;;;3.20;2.40;;;6.40;99.90;;;;;;4972579;28;20928;-77
2020/12/25 09:35:52;;;;;;;2.50;2.30;;;6.00;99.90;;;;;;4969837;28;20395;-77
2020/12/25 09:38:18;;;;;;;2.00;1.80;;;4.30;99.90;;;;;;4972546;28;20757;-76
2020/12/25 09:40:47;;;;;;;2.80;2.00;;;4.30;99.90;;;;;;4972880;28;20431;-76
2020/12/25 09:43:12;;;;;;;2.40;2.17;;;4.20;99.90;;;;;;4966965;28;20479;-78
2020/12/25 09:45:38;;;;;;;2.70;2.40;;;4.50;99.90;;;;;;4971777;28;20388;-77
2020/12/25 09:48:04;;;;;;;2.60;2.40;;;5.80;99.90;;;;;;4972284;28;20396;-76
2020/12/25 09:50:29;;;;;;;2.80;2.50;;;5.40;99.90;;;;;;4973119;28;20384;-77
2020/12/25 09:52:58;;;;;;;3.33;2.40;;;4.20;99.90;;;;;;4973573;28;20392;-76
2020/12/25 09:55:29;;;;;;;2.40;2.10;;;4.40;99.90;;;;;;4971967;28;20460;-76
2020/12/25 09:57:55;;;;;;;3.60;2.40;;;4.00;99.90;;;;;;4969167;28;20425;-76
2020/12/25 10:00:24;;;;;;;2.40;2.20;;;5.50;99.90;;;;;;4971906;28;20384;-76
2020/12/25 10:02:50;;;;;;;2.92;2.63;;;5.60;99.90;;;;;;4973506;28;20812;-76
2020/12/25 10:05:15;;;;;;;3.80;2.90;;;4.00;99.90;;;;;;4972839;28;20388;-76
2020/12/25 10:07:48;;;;;;;4.93;2.90;;;6.20;99.90;;;;;;4973985;28;20815;-76
2020/12/25 10:10:14;;;;;;;3.47;3.00;;;5.30;99.90;;;;;;4964907;28;20445;-77
2020/12/25 10:12:40;;;;;;;3.63;2.75;;;5.90;99.90;;;;;;4953364;28;20408;-76
2020/12/25 10:15:05;;;;;;;3.70;2.90;;;6.30;99.90;;;;;;4954412;28;20421;-76
2020/12/25 10:17:34;;;;;;;2.93;2.63;;;5.50;99.90;;;;;;4953507;28;21121;-77
2020/12/25 10:19:59;;;;;;;3.28;2.75;;;4.30;99.90;;;;;;4954209;28;20953;-76
2020/12/25 10:22:25;;;;;;;3.70;3.10;;;4.90;99.90;;;;;;4953188;28;20401;-76
2020/12/25 10:24:54;;;;;;;3.38;2.85;;;5.60;99.90;;;;;;4954412;28;20818;-76
2020/12/25 10:27:19;;;;;;;4.13;3.03;;;5.50;99.90;;;;;;4954913;28;20386;-76
2020/12/25 10:29:45;;;;;;;3.65;3.03;;;6.40;99.90;;;;;;4973722;28;20396;-76
2020/12/25 10:32:11;;;;;;;4.20;3.50;;;7.00;99.90;;;;;;4972792;28;20388;-79
2020/12/25 10:34:42;;;;;;;2.80;2.50;;;4.10;99.90;;;;;;4972988;28;20419;-76
2020/12/25 10:37:10;;;;;;;4.60;3.00;;;4.20;99.90;;;;;;4972789;28;20762;-77
2020/12/25 10:39:45;;;;;;;3.40;3.05;;;5.70;99.90;;;;;;4973072;28;20777;-76
2020/12/25 10:42:11;;;;;;;3.60;3.30;;;4.10;99.90;;;;;;4972128;28;20432;-78
2020/12/25 10:44:40;;;;;;;4.10;3.10;;;4.40;99.90;;;;;;4973093;28;20399;-76
2020/12/25 10:47:06;;;;;;;3.67;3.38;;;4.70;99.90;;;;;;4972822;28;20383;-76
2020/12/25 10:49:32;;;;;;;3.55;3.00;;;5.90;99.90;;;;;;4972682;28;20391;-74
2020/12/25 10:52:00;;;;;;;3.33;3.03;;;4.00;99.90;;;;;;4973214;28;20392;-75
2020/12/25 10:54:26;;;;;;;4.70;3.28;;;5.70;99.90;;;;;;4972549;28;20467;-76
2020/12/25 10:56:51;;;;;;;3.58;3.28;;;5.20;99.90;;;;;;4972939;28;20466;-76
2020/12/25 10:59:18;;;;;;;3.73;3.30;;;;;;;;;;4972037;28;20447;-76
2020/12/25 11:01:46;;;;;;;5.65;3.20;;;4.10;99.90;;;;;;4972828;28;20388;-76
2020/12/25 11:04:12;;;;;;;3.58;3.10;;;3.80;99.90;;;;;;4972675;28;20391;-79
2020/12/25 11:06:38;;;;;;;4.00;3.30;;;4.40;99.90;;;;;;4972474;28;20399;-74
2020/12/25 11:09:06;;;;;;;5.20;3.33;;;6.90;99.90;;;;;;4972588;28;20463;-76
2020/12/25 11:11:32;;;;;;;5.15;3.33;;;6.00;99.90;;;;;;4953040;28;20840;-76
2020/12/25 11:13:59;;;;;;;4.80;3.67;;;4.60;99.90;;;;;;4959296;28;20430;-77
2020/12/25 11:16:34;;;;;;;3.83;2.80;;;4.40;99.90;;;;;;4960562;28;20390;-76
2020/12/25 11:19:03;;;;;;;4.35;3.67;;;4.70;99.90;;;;;;4964478;28;20440;-77
2020/12/25 11:21:36;;;;;;;4.68;4.22;;;4.70;99.90;;;;;;4963940;28;20409;-75
2020/12/25 11:24:05;;;;;;;5.30;3.85;;;4.80;99.90;;;;;;4965251;28;20398;-77
2020/12/25 11:26:36;;;;;;;4.18;3.40;;;4.60;99.90;;;;;;4962124;28;20381;-72
2020/12/25 11:29:11;;;;;;;5.15;3.53;;;4.40;99.90;;;;;;4963600;28;20406;-76
2020/12/25 11:31:44;;;;;;;4.82;3.60;;;4.50;99.90;;;;;;4962941;28;20447;-76
2020/12/25 11:34:10;;;;;;;6.05;4.65;;;4.50;99.90;;;;;;4961955;28;20429;-77
2020/12/25 11:36:39;;;;;;;5.53;4.10;;;4.20;99.90;;;;;;4965305;28;20390;-77
2020/12/25 11:39:08;;;;;;;5.38;3.80;;;4.50;99.90;;;;;;4960838;28;20768;-75
2020/12/25 11:41:34;;;;;;;4.30;3.90;;;5.90;99.90;;;;;;4961360;28;20672;-74
2020/12/25 11:44:02;;;;;;;5.93;3.78;;;5.00;99.90;;;;;;4963380;28;20447;-74
2020/12/25 11:46:29;;;;;;;4.07;3.65;;;4.30;99.90;;;;;;4960949;28;20735;-74
2020/12/25 11:48:57;;;;;;;4.00;3.60;;;6.20;99.90;;;;;;4961921;28;20389;-74
2020/12/25 11:51:27;;;;;;;4.90;3.70;;;5.10;99.90;;;;;;4962830;28;20754;-75
2020/12/25 11:53:54;;;;;;;4.35;3.80;;;4.30;99.90;;;;;;4961415;28;20902;-73
2020/12/25 11:56:22;;;;;;;3.65;3.35;;;4.10;99.90;;;;;;4960934;28;20492;-76
2020/12/25 11:58:48;;;;;;;3.50;3.20;;;4.80;99.90;;;;;;4964072;28;20408;-74
2020/12/25 12:01:17;;;;;;;3.38;3.08;;;6.60;99.90;;;;;;4962222;28;20456;-74
2020/12/25 12:03:46;;;;;;;3.33;2.88;;;4.80;99.90;;;;;;4963172;28;20395;-73
2020/12/25 12:06:18;;;;;;;3.80;3.10;;;4.90;99.90;;;;;;4962535;28;20739;-74
2020/12/25 12:08:55;;;;;;;3.47;3.17;;;4.00;99.90;;;;;;4961152;28;20402;-74
2020/12/25 12:11:20;;;;;;;3.67;3.13;;;4.00;99.90;;;;;;4958837;28;20518;-74
2020/12/25 12:13:46;;;;;;;3.30;3.00;;;3.90;99.90;;;;;;4960145;28;20507;-74
2020/12/25 12:16:16;;;;;;;3.40;3.10;;;4.30;99.90;;;;;;4960786;28;20396;-74
2020/12/25 12:18:42;;;;;;;4.70;3.05;;;4.50;99.90;;;;;;4963149;28;20471;-75
2020/12/25 12:21:13;;;;;;;4.40;4.00;;;6.10;99.90;;;;;;4961641;28;20803;-74
2020/12/25 12:23:39;;;;;;;4.35;3.22;;;6.20;99.90;;;;;;4966062;28;20503;-73
2020/12/25 12:26:05;;;;;;;3.33;3.00;;;4.30;99.90;;;;;;4967419;28;20416;-74
2020/12/25 12:28:31;;;;;;;3.70;2.78;;;5.20;99.90;;;;;;4965305;28;20862;-74
2020/12/25 12:30:57;;;;;;;4.30;3.20;;;4.00;99.90;;;;;;4965515;28;20489;-74
2020/12/25 12:33:23;;;;;;;3.42;3.13;;;4.00;99.90;;;;;;4964076;28;20393;-74
2020/12/25 12:35:51;;;;;;;3.80;3.17;;;4.10;99.90;;;;;;4966382;28;20879;-74
2020/12/25 12:41:18;;;;;;;5.18;3.60;;;4.50;99.90;;;;;;4964605;28;20405;-74
2020/12/25 12:43:43;;;;;;;4.13;3.35;;;4.30;99.90;;;;;;4963320;28;20803;-77
2020/12/25 12:46:09;;;;;;;3.88;3.47;;;4.10;99.90;;;;;;4966170;28;20380;-77
2020/12/25 12:48:35;;;;;;;4.18;3.40;;;4.10;99.90;;;;;;4963510;28;20474;-79
2020/12/25 12:51:00;;;;;;;3.33;3.03;;;4.60;99.90;;;;;;4964090;28;20382;-78
2020/12/25 12:53:26;;;;;;;3.70;3.00;;;;;;;;;;4964828;28;20408;-78
2020/12/25 12:55:55;;;;;;;3.90;3.20;;;4.10;99.90;;;;;;4965546;28;20487;-80
2020/12/25 12:58:21;;;;;;;4.00;3.33;;;4.00;99.90;;;;;;4966300;28;20472;-81
2020/12/25 13:00:46;;;;;;;4.30;3.10;;;4.00;99.90;;;;;;4965500;28;20480;-79
2020/12/25 13:03:12;;;;;;;3.40;3.10;;;4.10;99.90;;;;;;4966357;28;20381;-81